Time;durP1;ratioP1;P1;durP2;ratioP2;P2;SDS_P1;SDS_P2;PMS_P1;PMS_P2;Temp;Humidity;BMP_temperature;BMP_pressure;BME280_temperature;BME280_humidity;BME280_pressure;Samples;Min_cycle;Max_cycle;Signal;HPM_P1;HPM_P2
2021/07/20 03:33:07;;;;;;;17.83;14.70;;;;;;;20.09;58.55;98951.84;7146842;23;20248;-85
2021/07/20 03:36:29;;;;;;;21.27;15.07;;;;;;;20.20;57.86;98958.19;6898015;28;20209;-86
2021/07/20 03:39:53;;;;;;;18.60;14.77;;;;;;;20.34;57.15;98962.97;6897689;28;20281;-85
2021/07/20 03:43:15;;;;;;;17.73;13.53;;;;;;;20.32;57.64;98953.34;6873567;28;20229;-85
2021/07/20 03:46:37;;;;;;;18.73;14.17;;;;;;;20.12;58.36;98953.22;6870808;28;20212;-85
2021/07/20 03:50:00;;;;;;;17.30;14.30;;;;;;;19.99;57.56;98915.31;6870323;28;20225;-85
2021/07/20 03:53:22;;;;;;;17.90;14.90;;;;;;;19.78;57.46;98957.28;6870453;28;20236;-87
2021/07/20 03:56:44;;;;;;;18.07;14.73;;;;;;;19.86;59.25;98976.00;6871614;28;20213;-86
2021/07/20 04:00:08;;;;;;;18.20;14.73;;;;;;;19.75;59.65;98977.78;6880416;28;20300;-86
2021/07/20 04:03:31;;;;;;;17.43;14.43;;;;;;;19.84;58.70;98956.25;6897474;28;20220;-86
2021/07/20 04:06:55;;;;;;;18.73;14.00;;;;;;;19.98;58.13;98973.91;6897352;28;20204;-86
2021/07/20 04:10:17;;;;;;;18.10;14.00;;;;;;;20.16;57.44;98966.13;6896495;28;20205;-86
2021/07/20 04:13:44;;;;;;;15.93;12.83;;;;;;;20.25;56.63;98985.63;6896024;28;20228;-86
2021/07/20 04:17:06;;;;;;;19.73;15.17;;;;;;;19.52;58.68;98963.63;6896807;28;20205;-86
2021/07/20 04:20:28;;;;;;;16.57;14.13;;;;;;;19.43;59.50;98979.66;6896323;28;20215;-86
2021/07/20 04:23:52;;;;;;;19.77;14.07;;;;;;;19.90;58.70;98969.72;6896848;28;20687;-86
2021/07/20 04:27:13;;;;;;;17.27;13.70;;;;;;;19.93;58.31;98984.81;6896010;28;20208;-86
2021/07/20 04:30:35;;;;;;;20.00;14.90;;;;;;;19.99;58.37;98978.28;6896131;28;20233;-86
2021/07/20 04:33:57;;;;;;;17.77;14.20;;;;;;;20.03;57.61;98991.19;6896944;28;20553;-86
2021/07/20 04:37:19;;;;;;;17.07;14.00;;;;;;;20.31;57.06;98988.16;6896414;28;20205;-88
2021/07/20 04:40:42;;;;;;;19.23;15.77;;;;;;;19.65;59.43;98985.91;6896040;28;20228;-86
2021/07/20 04:44:05;;;;;;;18.57;14.70;;;;;;;20.09;58.26;98992.91;6896105;28;20205;-84
2021/07/20 04:47:27;;;;;;;15.80;13.60;;;;;;;20.31;57.15;99001.84;6896118;28;20763;-85
2021/07/20 04:50:52;;;;;;;16.83;13.20;;;;;;;20.51;56.62;98993.75;6891008;28;21064;-85
2021/07/20 04:54:15;;;;;;;15.17;13.13;;;;;;;20.34;57.66;98993.09;6892307;28;20205;-86
2021/07/20 04:57:39;;;;;;;22.93;14.67;;;;;;;20.63;57.07;99001.78;6895857;28;20210;-86
2021/07/20 05:01:01;;;;;;;21.07;14.20;;;;;;;20.84;56.85;99007.13;6894914;28;20224;-86
2021/07/20 05:04:23;;;;;;;17.13;13.60;;;;;;;20.99;55.31;98981.72;6895541;28;20200;-86
2021/07/20 05:07:45;;;;;;;17.90;13.70;;;;;;;21.33;55.33;99015.88;6895607;28;20201;-85
2021/07/20 05:11:07;;;;;;;20.60;16.43;;;;;;;20.91;57.09;99012.38;6894314;28;20244;-86
2021/07/20 05:14:30;;;;;;;19.10;13.90;;;;;;;21.57;55.08;99004.97;6895453;28;20219;-84
2021/07/20 05:17:52;;;;;;;17.73;14.77;;;;;;;21.71;55.38;99013.56;6895082;28;20207;-85
2021/07/20 05:21:14;;;;;;;19.90;15.87;;;;;;;21.64;55.12;99008.28;6894612;28;20228;-84
2021/07/20 05:24:36;;;;;;;20.33;16.57;;;;;;;21.08;57.75;99002.88;6886206;28;20218;-85
2021/07/20 05:27:58;;;;;;;17.00;15.03;;;;;;;21.66;56.80;99010.75;6892115;28;20208;-84
2021/07/20 05:31:22;;;;;;;21.23;15.37;;;;;;;22.58;53.23;99012.22;6893916;28;20236;-84
2021/07/20 05:34:45;;;;;;;18.73;15.10;;;;;;;22.01;54.89;99006.16;6895107;28;20212;-84
2021/07/20 05:38:08;;;;;;;20.70;14.47;;;;;;;22.94;52.63;99008.28;6894508;28;20243;-84
2021/07/20 05:41:30;;;;;;;18.37;14.93;;;;;;;23.17;51.93;99015.94;6894873;28;20655;-85
2021/07/20 05:45:00;;;;;;;18.03;14.27;;;;;;;23.34;52.58;99012.84;6894259;28;20688;-85
2021/07/20 05:48:23;;;;;;;19.83;14.97;;;;;;;22.98;52.07;98998.38;6880454;28;20207;-85
2021/07/20 05:51:46;;;;;;;21.07;16.13;;;;;;;22.79;52.75;99015.75;6888873;28;20235;-85
2021/07/20 05:55:09;;;;;;;18.57;15.37;;;;;;;22.98;53.23;99030.53;6878664;28;20215;-86
2021/07/20 05:58:31;;;;;;;17.73;14.93;;;;;;;22.69;53.68;99013.84;6892447;28;20203;-85
2021/07/20 06:01:56;;;;;;;19.03;14.43;;;;;;;23.34;51.72;99024.69;6894131;28;20301;-85
2021/07/20 06:05:20;;;;;;;16.57;13.60;;;;;;;23.33;51.18;99025.78;6877153;28;20211;-85
2021/07/20 06:08:43;;;;;;;16.87;13.60;;;;;;;23.14;51.51;99021.94;6896003;28;20222;-85
2021/07/20 06:12:08;;;;;;;19.20;14.17;;;;;;;23.60;51.33;99039.94;6900781;28;20255;-85
2021/07/20 06:15:30;;;;;;;18.70;14.23;;;;;;;24.10;49.91;99023.16;6907061;28;20204;-85
2021/07/20 06:18:52;;;;;;;18.10;15.07;;;;;;;23.44;51.67;99032.91;6903799;28;20203;-85
2021/07/20 06:22:15;;;;;;;16.17;13.00;;;;;;;24.02;49.61;99017.44;6905960;28;20704;-85
2021/07/20 06:25:37;;;;;;;17.40;14.47;;;;;;;24.39;48.84;99035.03;6907268;28;20201;-85
2021/07/20 06:29:01;;;;;;;15.53;13.87;;;;;;;24.87;48.40;99038.75;6899525;28;20208;-85
2021/07/20 06:32:24;;;;;;;18.63;14.23;;;;;;;24.20;48.62;99036.03;6900001;28;20228;-86
2021/07/20 06:35:47;;;;;;;15.90;13.60;;;;;;;24.53;47.93;99041.53;6896725;28;20202;-85
2021/07/20 06:39:10;;;;;;;19.07;12.37;;;;;;;25.01;47.17;99029.47;6897638;28;20680;-84
2021/07/20 06:42:33;;;;;;;15.77;13.07;;;;;;;25.38;45.70;99018.59;6890730;28;20240;-87
2021/07/20 06:45:55;;;;;;;14.50;12.77;;;;;;;25.09;47.13;99039.91;6891466;28;20211;-86
2021/07/20 06:49:19;;;;;;;13.03;11.17;;;;;;;25.11;46.00;99042.34;6913539;28;20207;-87
2021/07/20 06:52:42;;;;;;;15.87;12.23;;;;;;;24.16;46.40;99038.53;6905459;28;20229;-87
2021/07/20 06:56:08;;;;;;;17.40;12.60;;;;;;;24.89;45.03;99037.34;6905049;28;20214;-88
2021/07/20 06:59:30;;;;;;;14.50;11.43;;;;;;;24.56;46.70;99026.34;6907448;28;20203;-87
2021/07/20 07:03:00;;;;;;;13.67;12.17;;;;;;;24.71;46.58;99032.56;6898573;28;20245;-86
2021/07/20 07:06:24;;;;;;;14.40;12.07;;;;;;;25.07;47.07;99044.88;6892794;28;20219;-86
2021/07/20 07:09:47;;;;;;;15.83;11.17;;;;;;;25.54;45.06;99025.53;6908049;28;20202;-87
2021/07/20 07:13:11;;;;;;;14.67;11.50;;;;;;;25.05;45.49;98985.56;6909018;28;20265;-86
2021/07/20 07:16:58;;;;;;;;;;;;;;;;;;;;;
2021/07/20 07:20:25;;;;;;;16.73;12.17;;;;;;;25.79;43.93;99030.72;6898721;28;20212;-87
2021/07/20 07:23:50;;;;;;;13.93;11.07;;;;;;;26.36;43.18;99022.13;6901295;28;20196;-87
2021/07/20 07:27:13;;;;;;;19.67;10.53;;;;;;;26.87;41.72;99016.53;6899658;28;20682;-87
2021/07/20 07:30:36;;;;;;;16.73;11.70;;;;;;;25.38;43.86;99035.16;6888310;28;20221;-87
2021/07/20 07:33:58;;;;;;;15.03;10.57;;;;;;;25.77;43.49;99032.97;6871179;28;20228;-86
2021/07/20 07:37:21;;;;;;;13.30;10.83;;;;;;;26.06;43.67;99013.50;6876467;28;20207;-87
2021/07/20 07:40:43;;;;;;;13.13;10.50;;;;;;;25.86;43.73;99006.31;6875378;28;20372;-86
2021/07/20 07:44:06;;;;;;;13.33;10.33;;;;;;;26.18;43.51;99036.81;6871503;28;20220;-86
2021/07/20 07:47:29;;;;;;;11.47;9.77;;;;;;;26.45;42.72;99030.56;6870112;28;20333;-86
2021/07/20 07:50:51;;;;;;;12.77;11.13;;;;;;;26.83;40.55;99040.44;6869788;28;20227;-86
2021/07/20 07:54:13;;;;;;;11.90;9.87;;;;;;;26.81;41.03;99043.50;6870801;28;20225;-85
2021/07/20 07:57:35;;;;;;;10.73;9.40;;;;;;;26.47;41.02;99044.91;6885059;28;20645;-86
2021/07/20 08:00:58;;;;;;;14.87;10.27;;;;;;;26.80;40.43;99041.88;6897475;28;20224;-86
2021/07/20 08:04:21;;;;;;;12.90;9.20;;;;;;;26.57;42.13;99042.00;6885480;28;20209;-85
2021/07/20 08:07:44;;;;;;;13.30;9.50;;;;;;;27.59;40.05;99041.41;6873325;28;20240;-87
2021/07/20 08:11:06;;;;;;;15.10;9.60;;;;;;;27.39;40.33;99028.00;6871077;28;20229;-87
2021/07/20 08:14:28;;;;;;;13.67;9.00;;;;;;;27.24;39.77;99036.59;6871350;28;20244;-87
2021/07/20 08:17:50;;;;;;;12.83;9.17;;;;;;;27.75;38.60;99017.78;6871203;28;20216;-86
2021/07/20 08:21:14;;;;;;;12.10;8.77;;;;;;;27.12;38.70;99029.91;6871913;28;20229;-87
2021/07/20 08:24:37;;;;;;;12.27;8.93;;;;;;;27.32;39.22;99035.88;6870608;28;20217;-87
2021/07/20 08:28:04;;;;;;;10.77;9.23;;;;;;;26.75;40.41;99033.66;6870156;28;20220;-87
2021/07/20 08:31:29;;;;;;;13.20;9.77;;;;;;;27.26;39.81;99028.81;6870443;28;20238;-87
2021/07/20 08:34:54;;;;;;;13.00;9.20;;;;;;;28.14;38.85;99033.84;6870249;28;20200;-87
2021/07/20 08:38:19;;;;;;;12.23;9.80;;;;;;;27.97;38.22;99044.75;6882156;28;20647;-88
2021/07/20 08:41:52;;;;;;;11.87;8.77;;;;;;;28.68;37.50;99042.78;6896662;28;20708;-87
2021/07/20 08:45:17;;;;;;;9.77;8.77;;;;;;;28.82;36.46;99045.44;6896492;28;20667;-87
2021/07/20 08:48:45;;;;;;;10.30;8.70;;;;;;;28.79;36.89;99040.53;6897039;28;20205;-87
2021/07/20 08:52:13;;;;;;;9.80;8.40;;;;;;;28.79;36.37;99043.31;6896535;28;20237;-88
2021/07/20 08:55:41;;;;;;;10.97;8.97;;;;;;;29.26;35.63;98973.97;6896455;28;20301;-86
2021/07/20 08:59:05;;;;;;;13.67;8.80;;;;;;;29.61;36.56;99033.28;6895901;28;20193;-87
2021/07/20 09:02:36;;;;;;;12.90;8.90;;;;;;;29.32;35.96;99033.78;6898011;28;20719;-87
2021/07/20 09:06:04;;;;;;;11.77;9.23;;;;;;;29.45;35.48;99007.03;6895925;28;20199;-87
2021/07/20 09:09:27;;;;;;;12.10;9.63;;;;;;;29.21;35.94;99046.34;6895544;28;20193;-86
2021/07/20 09:12:52;;;;;;;11.07;8.43;;;;;;;28.28;37.28;99018.78;6896272;28;20239;-87
2021/07/20 09:16:22;;;;;;;12.27;9.17;;;;;;;29.93;35.14;99039.22;6895803;28;20594;-87
2021/07/20 09:19:50;;;;;;;10.13;8.60;;;;;;;30.39;34.03;99031.09;6895181;28;20203;-87
2021/07/20 09:23:28;;;;;;;11.13;8.03;;;;;;;29.66;34.41;99005.34;6861245;28;20222;-87
2021/07/20 09:27:17;;;;;;;12.13;8.67;;;;;;;30.25;33.72;99032.41;6895992;28;20185;-88
2021/07/20 09:30:46;;;;;;;12.93;8.53;;;;;;;29.54;35.08;99035.72;6932505;23;20699;-81
2021/07/20 09:34:16;;;;;;;13.50;9.00;;;;;;;28.53;36.30;99032.03;6890655;28;20221;-82
2021/07/20 09:37:42;;;;;;;13.57;9.80;;;;;;;28.03;37.22;99041.56;6894835;28;20204;-82
2021/07/20 09:41:13;;;;;;;13.90;10.23;;;;;;;28.32;37.09;99041.97;6894382;28;20235;-82
2021/07/20 09:44:43;;;;;;;12.23;10.20;;;;;;;28.22;36.28;99028.34;6894761;28;20189;-81
2021/07/20 09:48:18;;;;;;;12.63;9.60;;;;;;;29.52;34.66;99027.66;6894675;28;20212;-81
2021/07/20 09:52:07;;;;;;;13.83;9.77;;;;;;;30.50;33.88;99026.00;6895105;28;20373;-82
2021/07/20 09:55:38;;;;;;;14.80;9.80;;;;;;;30.81;32.65;99021.06;6895645;28;20570;-82
2021/07/20 09:59:07;;;;;;;13.60;9.27;;;;;;;29.58;34.91;99006.94;6895206;28;20199;-82
2021/07/20 10:02:36;;;;;;;13.20;10.37;;;;;;;29.77;33.88;99023.34;6895033;28;20239;-82
2021/07/20 10:06:03;;;;;;;12.87;9.63;;;;;;;30.03;34.46;99032.53;6895167;28;20293;-81
2021/07/20 10:09:28;;;;;;;26.33;14.63;;;;;;;30.54;32.94;99011.09;6875554;28;20195;-82
2021/07/20 10:13:01;;;;;;;16.77;10.50;;;;;;;31.11;32.25;99017.19;6872159;28;20240;-82
2021/07/20 10:16:27;;;;;;;11.67;10.03;;;;;;;30.84;32.50;99018.41;6871957;28;20203;-82
2021/07/20 10:19:52;;;;;;;17.73;11.47;;;;;;;30.81;33.10;99016.31;6871105;28;20195;-82
2021/07/20 10:23:22;;;;;;;15.97;11.23;;;;;;;30.95;32.24;99018.91;6874562;28;20224;-82
2021/07/20 10:26:46;;;;;;;17.43;10.57;;;;;;;30.60;33.24;99012.53;6876210;28;20215;-82
2021/07/20 10:30:10;;;;;;;13.30;10.30;;;;;;;30.91;31.83;98981.72;6874820;28;20218;-82
2021/07/20 10:33:37;;;;;;;13.47;10.57;;;;;;;30.64;32.25;98994.06;6874866;28;20231;-81
2021/07/20 10:37:07;;;;;;;13.50;10.57;;;;;;;29.49;34.74;99011.63;6874638;28;20266;-83
2021/07/20 10:40:31;;;;;;;14.73;9.63;;;;;;;30.55;32.71;99007.16;6868604;28;20224;-81
2021/07/20 10:44:00;;;;;;;14.90;10.93;;;;;;;28.26;36.28;99007.16;6864005;28;20206;-80
2021/07/20 10:47:24;;;;;;;18.17;11.77;;;;;;;29.56;34.14;99003.69;6850677;28;20197;-83
2021/07/20 10:50:54;;;;;;;12.33;10.17;;;;;;;30.18;33.77;99007.84;6847451;28;20242;-83
2021/07/20 10:54:26;;;;;;;12.67;10.00;;;;;;;30.70;32.11;99008.63;6868792;28;20306;-83
2021/07/20 10:57:55;;;;;;;10.93;9.80;;;;;;;30.38;33.33;99011.94;6873155;28;20203;-82
2021/07/20 11:01:19;;;;;;;13.50;10.40;;;;;;;30.95;32.70;99007.75;6873493;28;20243;-83
2021/07/20 11:04:46;;;;;;;13.80;10.53;;;;;;;32.22;30.30;99006.22;6873246;28;20214;-83
2021/07/20 11:08:09;;;;;;;15.10;9.90;;;;;;;31.58;30.48;98990.91;6862185;28;20688;-82
2021/07/20 11:11:35;;;;;;;13.73;10.23;;;;;;;30.76;31.73;99004.50;6870415;28;20240;-83
2021/07/20 11:14:59;;;;;;;12.17;10.87;;;;;;;29.88;32.99;99007.97;6873781;28;20216;-82
2021/07/20 11:18:24;;;;;;;12.13;10.63;;;;;;;30.67;32.06;98973.91;6869512;28;20207;-82
2021/07/20 11:21:47;;;;;;;13.77;11.90;;;;;;;30.06;32.58;98990.13;6860020;28;20233;-83
2021/07/20 11:25:10;;;;;;;15.83;11.10;;;;;;;30.79;31.24;98998.28;6865529;28;20209;-83
2021/07/20 11:28:32;;;;;;;13.43;11.07;;;;;;;28.82;33.70;98999.09;6873730;28;20207;-83
2021/07/20 11:31:57;;;;;;;16.00;11.00;;;;;;;28.81;34.38;98978.00;6864741;28;20235;-83
2021/07/20 11:35:20;;;;;;;15.57;11.20;;;;;;;29.42;32.88;98999.38;6867499;28;20717;-83
2021/07/20 11:38:44;;;;;;;16.17;11.60;;;;;;;29.23;32.63;98999.63;6868493;28;20214;-83
2021/07/20 11:42:11;;;;;;;13.37;11.97;;;;;;;29.70;33.18;99000.75;6869846;28;20231;-85
2021/07/20 11:45:35;;;;;;;14.23;11.20;;;;;;;30.09;31.34;98997.84;6870274;28;20221;-80
2021/07/20 11:49:02;;;;;;;13.90;12.00;;;;;;;29.08;32.11;98993.69;6869492;28;20675;-82
2021/07/20 11:52:28;;;;;;;15.03;11.43;;;;;;;29.90;31.44;98987.03;6863443;28;20226;-82
2021/07/20 11:55:53;;;;;;;12.60;11.30;;;;;;;30.70;29.37;98966.88;6863501;28;20199;-82
2021/07/20 11:59:48;;;;;;;12.90;11.57;;;;;;;30.54;31.12;98983.25;6868179;28;20208;-82
2021/07/20 12:03:14;;;;;;;14.27;11.60;;;;;;;30.75;30.87;98972.25;6848393;28;20293;-81
2021/07/20 12:06:58;;;;;;;14.97;11.60;;;;;;;31.12;29.36;98982.59;6872240;28;20617;-82
2021/07/20 12:10:36;;;;;;;12.33;11.03;;;;;;;31.50;28.34;98967.53;6869044;28;20239;-81
2021/07/20 12:14:04;;;;;;;12.40;10.93;;;;;;;31.56;28.65;98980.13;6844322;29;20321;-81
2021/07/20 12:17:32;;;;;;;13.53;11.83;;;;;;;30.71;29.36;98968.53;6845037;29;20211;-82
2021/07/20 12:20:54;;;;;;;14.73;10.77;;;;;;;29.89;29.22;98965.94;6843342;28;20224;-82
2021/07/20 12:24:17;;;;;;;12.90;11.50;;;;;;;30.19;29.70;98973.31;6843196;29;20214;-81
2021/07/20 12:27:40;;;;;;;12.07;10.87;;;;;;;31.42;29.77;98973.16;6843626;29;20213;-82
2021/07/20 12:31:02;;;;;;;13.20;10.50;;;;;;;31.37;28.27;98963.00;6842148;28;20236;-82
2021/07/20 12:34:25;;;;;;;11.27;10.07;;;;;;;32.02;27.59;98957.63;6843503;28;20251;-82
2021/07/20 12:37:59;;;;;;;10.80;9.67;;;;;;;31.85;26.72;98943.81;6844219;29;20218;-81
2021/07/20 12:41:22;;;;;;;10.70;9.27;;;;;;;32.27;26.03;98961.38;6842566;28;20253;-81
2021/07/20 12:44:43;;;;;;;12.47;9.33;;;;;;;31.74;26.26;98967.72;6859115;28;20199;-82
2021/07/20 12:48:05;;;;;;;11.20;10.07;;;;;;;31.19;27.29;98975.38;6842113;28;20606;-82
2021/07/20 12:51:29;;;;;;;11.17;9.43;;;;;;;30.97;27.15;98960.88;6846718;28;20234;-82
2021/07/20 12:54:50;;;;;;;10.63;9.33;;;;;;;30.52;27.91;98970.81;6869260;28;20214;-82
2021/07/20 12:58:17;;;;;;;9.97;8.97;;;;;;;31.32;28.73;98960.41;6868236;28;20222;-81
2021/07/20 13:01:43;;;;;;;9.90;8.70;;;;;;;31.18;26.67;98948.69;6868554;28;20732;-81
2021/07/20 13:05:06;;;;;;;9.93;8.93;;;;;;;31.95;26.18;98971.31;6868690;28;20231;-81
2021/07/20 13:08:28;;;;;;;11.07;9.10;;;;;;;31.19;26.11;98955.88;6867439;28;20675;-82
2021/07/20 13:11:51;;;;;;;9.90;8.90;;;;;;;31.10;26.72;98957.03;6851221;28;20602;-82
2021/07/20 13:15:19;;;;;;;9.90;8.90;;;;;;;31.15;27.78;98954.06;6868537;28;20261;-82
2021/07/20 13:18:41;;;;;;;9.03;8.13;;;;;;;30.32;27.52;98947.28;6867955;28;20220;-82
2021/07/20 13:22:04;;;;;;;11.10;8.47;;;;;;;31.13;26.75;98961.97;6868538;28;20728;-81
2021/07/20 13:25:27;;;;;;;9.77;8.77;;;;;;;31.17;26.22;98943.41;6856281;28;20209;-82
2021/07/20 13:28:53;;;;;;;13.03;8.77;;;;;;;31.31;26.50;98958.75;6867329;28;20205;-82
2021/07/20 13:32:17;;;;;;;13.47;9.20;;;;;;;31.30;26.57;98959.13;6844158;28;20238;-82
2021/07/20 13:35:39;;;;;;;10.43;8.87;;;;;;;31.30;26.83;98957.13;6840868;28;20698;-83
2021/07/20 13:39:02;;;;;;;10.50;9.00;;;;;;;32.35;24.78;98963.28;6840470;29;20196;-83
2021/07/20 13:42:24;;;;;;;9.13;8.03;;;;;;;31.98;25.52;98970.66;6841406;29;20231;-82
2021/07/20 13:45:47;;;;;;;9.90;8.87;;;;;;;30.24;26.99;98972.34;6841294;28;20213;-82
2021/07/20 13:49:11;;;;;;;11.47;7.90;;;;;;;30.23;26.82;98979.88;6842193;29;20220;-82
2021/07/20 13:52:35;;;;;;;9.57;8.60;;;;;;;30.84;26.70;98959.94;6841395;29;20865;-82
2021/07/20 13:56:07;;;;;;;8.83;7.97;;;;;;;30.14;26.88;98956.78;6841825;29;20233;-82
2021/07/20 13:59:33;;;;;;;9.50;8.40;;;;;;;30.85;26.51;98964.34;6841817;29;20197;-82
2021/07/20 14:02:56;;;;;;;11.17;8.57;;;;;;;30.67;27.22;98942.47;6841560;29;20226;-82
2021/07/20 14:06:19;;;;;;;12.20;8.87;;;;;;;31.04;27.48;98956.44;6841554;29;20303;-82
2021/07/20 14:09:41;;;;;;;10.23;8.23;;;;;;;30.58;27.61;98961.13;6841543;29;20212;-82
2021/07/20 14:13:03;;;;;;;10.07;8.40;;;;;;;30.14;27.15;98934.53;6841835;29;20641;-82
2021/07/20 14:16:25;;;;;;;9.93;8.33;;;;;;;30.35;26.88;98952.19;6841848;29;20222;-82
2021/07/20 14:19:47;;;;;;;9.53;8.53;;;;;;;30.94;27.71;98940.09;6841350;29;20220;-82
2021/07/20 14:23:12;;;;;;;9.17;7.80;;;;;;;30.97;26.25;98941.38;6853821;28;20242;-82
2021/07/20 14:26:37;;;;;;;9.13;8.03;;;;;;;31.10;26.10;98946.72;6868490;28;20687;-82
2021/07/20 14:29:59;;;;;;;9.23;8.10;;;;;;;30.30;27.55;98940.44;6867739;28;20219;-82
2021/07/20 14:33:22;;;;;;;10.77;7.77;;;;;;;29.89;27.86;98927.00;6855532;28;20235;-82
2021/07/20 14:36:46;;;;;;;8.43;7.63;;;;;;;29.69;27.34;98936.00;6840856;29;20601;-82
2021/07/20 14:40:12;;;;;;;11.47;8.27;;;;;;;30.88;27.29;98933.06;6840033;29;20206;-82
2021/07/20 14:43:38;;;;;;;8.67;7.37;;;;;;;30.33;27.84;98942.53;6843267;28;20204;-83
2021/07/20 14:46:59;;;;;;;9.77;7.70;;;;;;;29.66;27.22;98906.06;6865895;28;20661;-82
2021/07/20 14:50:23;;;;;;;8.50;7.63;;;;;;;30.78;26.77;98933.41;6865595;28;20232;-81
2021/07/20 14:53:49;;;;;;;8.07;6.93;;;;;;;30.85;26.36;98921.78;6866258;28;20242;-81
2021/07/20 14:57:12;;;;;;;11.63;7.33;;;;;;;30.75;25.74;98916.56;6855416;28;20200;-81
2021/07/20 15:00:55;;;;;;;10.87;7.90;;;;;;;30.71;26.62;98923.97;6844344;29;20244;-82
2021/07/20 15:04:18;;;;;;;8.43;7.27;;;;;;;30.66;26.26;98924.16;6844851;29;20560;-81
2021/07/20 15:07:39;;;;;;;10.10;7.80;;;;;;;30.93;27.39;98918.13;6844319;29;20208;-80
2021/07/20 15:11:23;;;;;;;9.53;8.20;;;;;;;29.57;27.50;98908.03;6843967;28;20694;-81
2021/07/20 15:14:46;;;;;;;9.23;7.87;;;;;;;30.23;26.60;98876.09;6844816;28;20215;-82
2021/07/20 15:18:08;;;;;;;10.43;7.87;;;;;;;29.99;27.45;98923.06;6870033;28;20206;-81
2021/07/20 15:21:32;;;;;;;9.90;7.93;;;;;;;30.32;26.84;98927.78;6871980;28;20563;-82
2021/07/20 15:24:56;;;;;;;8.97;7.57;;;;;;;30.19;26.12;98923.25;6872072;28;20197;-82
2021/07/20 15:28:19;;;;;;;9.53;8.33;;;;;;;30.15;26.14;98927.03;6865935;28;20210;-82
2021/07/20 15:31:42;;;;;;;8.37;7.47;;;;;;;30.63;26.36;98917.25;6872032;28;20232;-81
2021/07/20 15:35:04;;;;;;;8.90;7.83;;;;;;;29.52;29.12;98927.63;6871881;28;20609;-81
2021/07/20 15:38:26;;;;;;;10.13;7.63;;;;;;;29.65;28.52;98920.28;6871742;28;20219;-81
2021/07/20 16:15:07;;;;;;;8.87;7.97;;;;;;;28.61;27.57;98789.06;6873827;28;20306;-80
2021/07/20 16:18:49;;;;;;;11.93;9.93;;;;;;;29.44;27.97;98922.88;6840702;29;20217;-80
2021/07/20 16:22:11;;;;;;;10.07;8.87;;;;;;;30.13;27.14;98929.31;6855336;28;20236;-81
2021/07/20 16:25:34;;;;;;;10.70;8.23;;;;;;;29.86;27.05;98929.63;6847634;28;20706;-80
2021/07/20 16:28:56;;;;;;;8.63;7.53;;;;;;;29.29;28.09;98920.56;6846564;29;20207;-80
2021/07/20 16:32:19;;;;;;;9.20;7.90;;;;;;;30.31;27.57;98936.50;6847864;28;20222;-80
2021/07/20 16:35:43;;;;;;;8.50;7.33;;;;;;;30.38;27.68;98928.44;6845977;29;20312;-81
2021/07/20 16:39:05;;;;;;;11.07;7.83;;;;;;;30.14;27.96;98925.38;6847184;29;20814;-81
2021/07/20 16:42:27;;;;;;;8.73;7.33;;;;;;;30.17;28.11;98933.88;6847663;28;20235;-81
2021/07/20 16:45:50;;;;;;;9.27;8.10;;;;;;;29.69;28.25;98930.44;6847317;29;20692;-80
2021/07/20 16:49:12;;;;;;;10.33;7.77;;;;;;;29.86;28.34;98935.19;6847690;28;20214;-81
2021/07/20 16:52:35;;;;;;;8.67;7.30;;;;;;;29.58;27.80;98929.13;6847621;29;20246;-80
2021/07/20 16:56:02;;;;;;;8.60;7.63;;;;;;;29.50;28.34;98937.41;6847561;29;20721;-80
2021/07/20 16:59:27;;;;;;;10.10;7.47;;;;;;;29.65;28.14;98917.50;6847027;29;20548;-80
2021/07/20 17:02:51;;;;;;;9.27;7.67;;;;;;;29.68;27.83;98917.69;6846300;29;20227;-80
2021/07/20 17:06:13;;;;;;;8.33;7.40;;;;;;;29.11;29.95;98920.81;6847241;29;20213;-81
2021/07/20 17:09:36;;;;;;;10.20;7.57;;;;;;;29.66;28.54;98933.06;6846956;28;20209;-80
2021/07/20 17:12:57;;;;;;;11.57;8.20;;;;;;;29.76;27.93;98935.50;6847028;29;20231;-80
2021/07/20 17:16:19;;;;;;;9.47;7.30;;;;;;;29.82;28.03;98942.53;6847156;28;20232;-80
2021/07/20 17:19:41;;;;;;;7.60;6.83;;;;;;;29.41;28.61;98922.69;6846900;28;20209;-80
2021/07/20 17:23:03;;;;;;;8.37;7.43;;;;;;;28.63;28.96;98925.50;6860084;28;20239;-81
2021/07/20 17:26:26;;;;;;;9.87;8.17;;;;;;;28.66;29.20;98917.38;6874436;28;20209;-81
2021/07/20 17:29:48;;;;;;;9.07;7.63;;;;;;;29.12;28.54;98928.84;6866758;28;20212;-81
2021/07/20 17:33:20;;;;;;;8.13;7.17;;;;;;;29.70;27.57;98945.97;6884335;28;20228;-81
2021/07/20 17:36:42;;;;;;;8.27;7.33;;;;;;;28.99;28.91;98942.84;6886078;28;20232;-80
2021/07/20 17:40:07;;;;;;;8.70;7.17;;;;;;;29.12;28.92;98939.94;6875017;28;20248;-81
2021/07/20 17:43:30;;;;;;;9.13;7.80;;;;;;;29.40;28.80;98938.56;6875110;28;20239;-80
2021/07/20 17:46:52;;;;;;;8.30;7.40;;;;;;;29.57;28.57;98940.56;6877203;28;20209;-81
2021/07/20 17:54:59;;;;;;;8.33;7.23;;;;;;;28.96;28.48;98866.56;6745587;27;10340272;-81
2021/07/20 18:16:33;;;;;;;11.83;8.30;;;;;;;27.38;32.27;98815.88;6550431;30;20223;-81
2021/07/20 18:24:11;;;;;;;10.60;8.13;;;;;;;28.46;31.45;98956.75;6603026;30;20221;-82
2021/07/20 18:27:35;;;;;;;9.17;7.87;;;;;;;28.41;32.04;98969.94;6610353;29;20211;-81
2021/07/20 18:30:57;;;;;;;10.97;8.43;;;;;;;28.50;32.64;98968.88;6675559;29;20253;-82
2021/07/20 18:34:19;;;;;;;10.63;7.90;;;;;;;29.02;32.63;98969.97;6730229;29;20318;-82
2021/07/20 18:37:40;;;;;;;8.37;7.37;;;;;;;28.74;36.64;98972.09;6729627;29;20728;-82
2021/07/20 18:41:03;;;;;;;10.43;8.67;;;;;;;28.42;36.22;98963.28;6738200;29;20229;-82
2021/07/20 18:44:26;;;;;;;9.37;8.17;;;;;;;28.32;36.44;98985.69;6825212;29;20212;-83
2021/07/20 18:47:51;;;;;;;10.20;8.47;;;;;;;27.85;37.52;98983.50;6856093;28;20622;-81
2021/07/20 18:51:13;;;;;;;8.70;7.80;;;;;;;27.56;38.59;98972.78;6891896;28;20397;-82
2021/07/20 18:54:35;;;;;;;11.13;8.40;;;;;;;27.37;39.27;98999.78;6911364;28;20218;-81
2021/07/20 18:57:56;;;;;;;11.17;8.97;;;;;;;27.33;39.44;98996.00;6903653;28;20212;-81
2021/07/20 19:01:20;;;;;;;10.13;8.57;;;;;;;27.08;40.23;98987.34;6991006;28;20221;-81
2021/07/20 19:04:42;;;;;;;10.60;9.13;;;;;;;26.84;40.70;98982.00;7009102;28;20296;-81
2021/07/20 19:08:04;;;;;;;10.27;9.17;;;;;;;26.81;41.34;99007.53;7007010;28;20229;-82
2021/07/20 19:11:26;;;;;;;12.23;8.90;;;;;;;26.52;42.36;99006.94;7005925;28;20237;-81
2021/07/20 19:14:48;;;;;;;11.23;8.63;;;;;;;26.35;42.77;99014.13;7005918;28;20211;-81
2021/07/20 19:18:12;;;;;;;15.33;9.30;;;;;;;26.05;43.94;99023.75;7008821;28;20210;-81
2021/07/20 19:21:33;;;;;;;10.73;8.77;;;;;;;25.88;44.27;99011.53;7009248;28;20222;-81
2021/07/20 19:25:01;;;;;;;10.53;9.03;;;;;;;25.82;44.57;99026.53;6994647;28;20689;-81
2021/07/20 19:28:23;;;;;;;9.40;8.50;;;;;;;25.83;44.80;99030.97;7008358;28;20194;-81
2021/07/20 19:31:44;;;;;;;10.53;9.43;;;;;;;24.99;47.01;99034.47;6982946;28;20234;-81
2021/07/20 19:35:10;;;;;;;10.00;9.00;;;;;;;25.08;47.33;99037.41;6980082;28;20214;-81
2021/07/20 19:38:32;;;;;;;14.47;9.77;;;;;;;24.87;47.46;99025.78;6980286;28;20207;-81
2021/07/20 19:41:53;;;;;;;10.53;8.73;;;;;;;25.10;47.05;99057.25;6979776;28;20229;-81
2021/07/20 19:45:15;;;;;;;11.17;8.77;;;;;;;24.75;47.44;99036.41;6987941;28;20571;-82
2021/07/20 19:48:40;;;;;;;11.33;8.97;;;;;;;24.80;47.32;99052.91;6997113;28;20204;-82
2021/07/20 19:52:04;;;;;;;9.90;8.87;;;;;;;24.76;47.46;99071.13;6991360;28;20688;-82
2021/07/20 19:55:26;;;;;;;10.40;9.30;;;;;;;24.20;49.08;99077.34;6977532;28;20200;-82
2021/07/20 19:58:47;;;;;;;10.73;8.80;;;;;;;24.23;48.39;99072.09;6977898;28;20218;-82
2021/07/20 20:02:09;;;;;;;10.77;9.57;;;;;;;24.16;49.02;99079.03;6985807;28;20591;-82
2021/07/20 20:05:31;;;;;;;11.33;9.30;;;;;;;24.05;49.41;99092.06;7005732;28;20216;-82
2021/07/20 20:08:54;;;;;;;10.17;8.40;;;;;;;24.35;48.41;99088.25;7004985;28;20598;-82
2021/07/20 20:12:16;;;;;;;11.33;9.10;;;;;;;23.91;49.36;99095.72;7005638;28;20225;-82
2021/07/20 20:15:38;;;;;;;14.73;9.27;;;;;;;23.81;49.10;99077.31;7004884;28;20668;-82
2021/07/20 20:18:59;;;;;;;9.83;8.83;;;;;;;23.82;49.22;99092.72;7004324;28;20212;-82
2021/07/20 20:22:21;;;;;;;10.90;9.03;;;;;;;23.77;49.34;99100.19;6997704;28;20240;-82